Time;durP1;ratioP1;P1;durP2;ratioP2;P2;SDS_P1;SDS_P2;PMS_P1;PMS_P2;Temp;Humidity;BMP_temperature;BMP_pressure;BME280_temperature;BME280_humidity;BME280_pressure;Samples;Min_cycle;Max_cycle;Signal;HPM_P1;HPM_P2
2022/08/25 00:02:13;;;;;;;;;;;;;;;;;;;;;
2022/08/25 00:07:14;;;;;;;6.75;3.70;;;20.60;99.90;;;;;;6250529;22;20028;-96
2022/08/25 00:09:40;;;;;;;6.07;3.67;;;20.60;99.90;;;;;;6198626;23;20046;-96
2022/08/25 00:12:06;;;;;;;6.63;4.25;;;20.50;99.90;;;;;;6227669;23;20437;-96
2022/08/25 00:15:01;;;;;;;6.82;3.60;;;20.50;99.90;;;;;;6201394;23;20024;-96
2022/08/25 00:22:38;;;;;;;5.72;3.53;;;20.40;99.90;;;;;;6250168;22;20319;-96
2022/08/25 00:47:44;;;;;;;5.72;3.72;;;20.20;99.90;;;;;;6250176;22;20024;-96
2022/08/25 00:50:34;;;;;;;5.82;3.67;;;20.20;99.90;;;;;;6197222;23;20056;-95
2022/08/25 01:24:52;;;;;;;5.65;3.33;;;19.90;99.90;;;;;;6245963;22;20024;-89
2022/08/25 01:33:03;;;;;;;6.35;3.72;;;19.80;99.90;;;;;;6244621;22;20024;-90
2022/08/25 01:39:41;;;;;;;5.10;2.90;;;19.80;99.90;;;;;;6246107;23;20069;-89
2022/08/25 01:42:49;;;;;;;5.47;3.13;;;19.70;99.90;;;;;;6201064;23;20016;-94
2022/08/25 01:45:15;;;;;;;4.55;2.97;;;19.60;99.90;;;;;;6200128;23;20106;-96
2022/08/25 01:47:41;;;;;;;5.50;3.33;;;19.60;99.90;;;;;;6201274;23;20020;-93
2022/08/25 01:50:14;;;;;;;4.88;3.13;;;19.60;99.90;;;;;;6200460;23;20086;-96
2022/08/25 01:53:31;;;;;;;5.20;3.17;;;19.50;99.90;;;;;;6199880;23;20044;-94
2022/08/25 01:58:35;;;;;;;5.32;3.25;;;19.40;99.90;;;;;;6251447;22;20024;-96
2022/08/25 02:01:07;;;;;;;5.85;3.22;;;19.40;99.90;;;;;;6180369;23;20024;-96
2022/08/25 02:24:37;;;;;;;5.25;2.90;;;19.20;99.90;;;;;;6255422;22;20085;-95
2022/08/25 02:27:03;;;;;;;5.70;3.13;;;19.20;99.90;;;;;;6202725;23;20039;-96
2022/08/25 02:29:29;;;;;;;6.18;3.05;;;19.10;99.90;;;;;;6204408;23;20017;-95
2022/08/25 02:31:58;;;;;;;5.03;2.63;;;19.10;99.90;;;;;;6206655;23;20024;-94
2022/08/25 02:34:24;;;;;;;5.53;3.38;;;19.10;99.90;;;;;;6204021;23;20016;-92
2022/08/25 02:36:53;;;;;;;5.25;3.00;;;19.10;99.90;;;;;;6225523;23;20020;-94
2022/08/25 02:39:18;;;;;;;5.45;2.88;;;19.00;99.90;;;;;;6202627;23;20023;-96
2022/08/25 02:41:44;;;;;;;6.10;2.97;;;19.00;99.90;;;;;;6208788;23;20075;-96
2022/08/25 02:44:22;;;;;;;5.43;2.88;;;18.90;99.90;;;;;;6204480;23;20043;-95
2022/08/25 02:46:48;;;;;;;4.93;2.67;;;18.90;99.90;;;;;;6204588;23;20028;-92
2022/08/25 02:49:19;;;;;;;4.43;2.25;;;18.90;99.90;;;;;;6231000;23;20020;-96
2022/08/25 02:51:45;;;;;;;4.80;2.75;;;18.80;99.90;;;;;;6202122;23;20122;-95
2022/08/25 03:05:53;;;;;;;4.43;2.78;;;18.70;99.90;;;;;;6255819;22;20437;-96
2022/08/25 03:08:24;;;;;;;4.85;2.85;;;18.70;99.90;;;;;;6205550;23;20024;-96
2022/08/25 03:10:50;;;;;;;4.78;2.88;;;18.70;99.90;;;;;;6202444;23;20020;-96
2022/08/25 03:13:41;;;;;;;4.68;2.78;;;18.60;99.90;;;;;;6208339;23;20043;-92
2022/08/25 03:16:10;;;;;;;6.18;2.80;;;18.60;99.90;;;;;;6208014;23;20028;-95
2022/08/25 03:18:36;;;;;;;;;;;18.60;99.90;;;;;;6207688;23;20027;-96
2022/08/25 03:21:02;;;;;;;6.00;2.97;;;18.50;99.90;;;;;;6229131;23;19915;-96
2022/08/25 03:23:48;;;;;;;5.30;2.72;;;18.50;99.90;;;;;;6205007;23;20345;-95
2022/08/25 03:59:54;;;;;;;4.72;2.60;;;18.20;99.90;;;;;;6256158;22;20015;-96
2022/08/25 04:02:20;;;;;;;5.85;3.33;;;18.20;99.90;;;;;;6203103;23;20040;-96
2022/08/25 04:04:45;;;;;;;5.57;3.05;;;18.20;99.90;;;;;;6204866;23;20508;-96
2022/08/25 04:07:11;;;;;;;5.57;3.03;;;18.20;99.90;;;;;;6206805;23;20027;-94
2022/08/25 04:09:37;;;;;;;5.85;2.65;;;18.20;99.90;;;;;;6205844;23;20450;-92
2022/08/25 04:15:42;;;;;;;6.38;2.80;;;18.20;99.90;;;;;;6190683;23;20517;-96
2022/08/25 04:18:10;;;;;;;5.95;2.97;;;18.10;99.90;;;;;;6198835;23;20016;-96
2022/08/25 04:20:36;;;;;;;5.47;2.72;;;18.20;99.90;;;;;;6198429;23;20024;-92
2022/08/25 04:23:02;;;;;;;;;;;18.10;99.90;;;;;;6199715;23;20287;-96
2022/08/25 04:25:28;;;;;;;5.65;2.90;;;18.10;99.90;;;;;;6202744;23;19963;-92
2022/08/25 04:27:54;;;;;;;6.18;3.00;;;18.10;99.90;;;;;;6200877;23;20020;-95
2022/08/25 04:30:20;;;;;;;5.15;2.65;;;18.00;99.90;;;;;;6201878;23;20385;-96
2022/08/25 04:35:59;;;;;;;;;;;;;;;;;;;;;
2022/08/25 05:13:31;;;;;;;6.45;2.80;;;18.10;99.90;;;;;;6248819;22;20099;-96
2022/08/25 05:15:59;;;;;;;6.07;3.40;;;18.10;99.90;;;;;;6196884;23;20020;-95
2022/08/25 05:18:28;;;;;;;5.65;2.88;;;18.10;99.90;;;;;;6198368;23;20098;-96
2022/08/25 05:24:17;;;;;;;5.20;2.92;;;18.10;99.90;;;;;;6167809;23;20473;-92
2022/08/25 05:47:27;;;;;;;6.03;3.28;;;18.40;99.90;;;;;;6247963;22;20024;-95
2022/08/25 05:49:53;;;;;;;6.53;3.42;;;18.50;99.90;;;;;;6197874;23;20020;-95
2022/08/25 05:52:19;;;;;;;7.20;3.33;;;18.60;99.90;;;;;;6197366;23;20038;-96
2022/08/25 05:54:45;;;;;;;6.15;3.20;;;18.60;99.90;;;;;;6199065;23;20031;-96
2022/08/25 18:52:03;;;;;;;6.20;2.38;;;25.90;84.80;;;;;;6206551;22;20025;-90
2022/08/25 18:54:30;;;;;;;4.93;2.78;;;25.90;85.20;;;;;;6226867;23;20024;-90
2022/08/25 23:26:11;;;;;;;18.95;12.07;;;22.30;99.60;;;;;;6245918;22;20024;-95
2022/08/25 23:29:02;;;;;;;15.35;11.30;;;22.30;99.80;;;;;;6222482;23;20449;-94
